sensor_id;sensor_type;location;lat;lon;timestamp;P1;durP1;ratioP1;P2;durP2;ratioP2
26530;SDS011;14201;43.188;24.160;2022-12-20T00:01:26;48.22;;;23.02;;
26530;SDS011;14201;43.188;24.160;2022-12-20T00:03:54;44.28;;;23.85;;
26530;SDS011;14201;43.188;24.160;2022-12-20T00:06:21;43.83;;;23.08;;
26530;SDS011;14201;43.188;24.160;2022-12-20T00:08:55;43.85;;;23.15;;
26530;SDS011;14201;43.188;24.160;2022-12-20T00:11:23;42.13;;;21.92;;
26530;SDS011;14201;43.188;24.160;2022-12-20T00:13:49;44.17;;;22.48;;
26530;SDS011;14201;43.188;24.160;2022-12-20T00:16:16;37.80;;;21.15;;
26530;SDS011;14201;43.188;24.160;2022-12-20T00:18:44;36.97;;;20.52;;
26530;SDS011;14201;43.188;24.160;2022-12-20T00:21:10;41.40;;;21.88;;
26530;SDS011;14201;43.188;24.160;2022-12-20T00:23:37;36.65;;;20.60;;
26530;SDS011;14201;43.188;24.160;2022-12-20T00:26:05;37.70;;;20.33;;
26530;SDS011;14201;43.188;24.160;2022-12-20T00:28:36;40.33;;;21.73;;
26530;SDS011;14201;43.188;24.160;2022-12-20T00:31:02;42.53;;;22.60;;
26530;SDS011;14201;43.188;24.160;2022-12-20T00:33:29;40.58;;;22.02;;
26530;SDS011;14201;43.188;24.160;2022-12-20T00:35:55;41.25;;;21.83;;
26530;SDS011;14201;43.188;24.160;2022-12-20T00:38:24;41.05;;;21.90;;
26530;SDS011;14201;43.188;24.160;2022-12-20T00:43:29;41.15;;;22.00;;
26530;SDS011;14201;43.188;24.160;2022-12-20T00:45:55;41.60;;;22.00;;
26530;SDS011;14201;43.188;24.160;2022-12-20T00:48:21;38.15;;;20.27;;
26530;SDS011;14201;43.188;24.160;2022-12-20T00:50:46;36.08;;;19.35;;
26530;SDS011;14201;43.188;24.160;2022-12-20T00:53:12;34.22;;;18.27;;
26530;SDS011;14201;43.188;24.160;2022-12-20T00:55:41;42.15;;;20.45;;
26530;SDS011;14201;43.188;24.160;2022-12-20T00:58:10;35.63;;;19.05;;
26530;SDS011;14201;43.188;24.160;2022-12-20T01:00:37;41.25;;;20.38;;
26530;SDS011;14201;43.188;24.160;2022-12-20T01:03:04;37.47;;;20.58;;
26530;SDS011;14201;43.188;24.160;2022-12-20T01:05:30;35.90;;;19.63;;
26530;SDS011;14201;43.188;24.160;2022-12-20T01:07:56;35.72;;;18.92;;
26530;SDS011;14201;43.188;24.160;2022-12-20T01:10:21;38.92;;;20.05;;
26530;SDS011;14201;43.188;24.160;2022-12-20T01:12:47;37.85;;;19.70;;
26530;SDS011;14201;43.188;24.160;2022-12-20T01:15:13;42.90;;;20.65;;
26530;SDS011;14201;43.188;24.160;2022-12-20T01:17:39;37.65;;;19.23;;
26530;SDS011;14201;43.188;24.160;2022-12-20T01:20:05;36.65;;;19.83;;
26530;SDS011;14201;43.188;24.160;2022-12-20T01:22:31;36.55;;;19.15;;
26530;SDS011;14201;43.188;24.160;2022-12-20T01:24:57;34.05;;;18.73;;
26530;SDS011;14201;43.188;24.160;2022-12-20T01:27:22;37.97;;;20.63;;
26530;SDS011;14201;43.188;24.160;2022-12-20T01:29:48;35.97;;;18.85;;
26530;SDS011;14201;43.188;24.160;2022-12-20T01:32:14;34.10;;;18.45;;
26530;SDS011;14201;43.188;24.160;2022-12-20T01:34:39;35.33;;;19.55;;
26530;SDS011;14201;43.188;24.160;2022-12-20T01:37:05;35.17;;;18.23;;
26530;SDS011;14201;43.188;24.160;2022-12-20T01:39:30;32.60;;;18.70;;
26530;SDS011;14201;43.188;24.160;2022-12-20T01:41:56;33.88;;;17.75;;
26530;SDS011;14201;43.188;24.160;2022-12-20T01:46:48;37.03;;;19.48;;
26530;SDS011;14201;43.188;24.160;2022-12-20T01:49:19;33.70;;;18.38;;
26530;SDS011;14201;43.188;24.160;2022-12-20T01:52:01;35.35;;;18.23;;
26530;SDS011;14201;43.188;24.160;2022-12-20T01:54:32;32.97;;;18.30;;
26530;SDS011;14201;43.188;24.160;2022-12-20T01:57:10;33.80;;;18.92;;
26530;SDS011;14201;43.188;24.160;2022-12-20T01:59:39;30.52;;;17.95;;
26530;SDS011;14201;43.188;24.160;2022-12-20T02:02:08;31.85;;;18.08;;
26530;SDS011;14201;43.188;24.160;2022-12-20T02:04:36;35.58;;;19.05;;
26530;SDS011;14201;43.188;24.160;2022-12-20T02:07:02;36.38;;;18.55;;
26530;SDS011;14201;43.188;24.160;2022-12-20T02:09:31;36.80;;;18.00;;
26530;SDS011;14201;43.188;24.160;2022-12-20T02:18:22;34.03;;;18.08;;
26530;SDS011;14201;43.188;24.160;2022-12-20T02:31:42;36.10;;;18.85;;
26530;SDS011;14201;43.188;24.160;2022-12-20T02:34:18;34.80;;;19.00;;
26530;SDS011;14201;43.188;24.160;2022-12-20T02:36:49;35.33;;;19.25;;
26530;SDS011;14201;43.188;24.160;2022-12-20T02:39:15;40.95;;;21.33;;
26530;SDS011;14201;43.188;24.160;2022-12-20T02:41:43;41.50;;;20.02;;
26530;SDS011;14201;43.188;24.160;2022-12-20T02:44:16;37.28;;;20.38;;
26530;SDS011;14201;43.188;24.160;2022-12-20T02:47:04;37.92;;;20.90;;
26530;SDS011;14201;43.188;24.160;2022-12-20T02:49:34;37.83;;;19.67;;
26530;SDS011;14201;43.188;24.160;2022-12-20T02:52:02;38.60;;;20.95;;
26530;SDS011;14201;43.188;24.160;2022-12-20T02:54:30;38.47;;;20.50;;
26530;SDS011;14201;43.188;24.160;2022-12-20T02:56:59;39.95;;;21.00;;
26530;SDS011;14201;43.188;24.160;2022-12-20T02:59:40;41.08;;;22.13;;
26530;SDS011;14201;43.188;24.160;2022-12-20T03:02:12;41.50;;;21.70;;
26530;SDS011;14201;43.188;24.160;2022-12-20T03:04:38;38.70;;;20.73;;
26530;SDS011;14201;43.188;24.160;2022-12-20T03:07:08;44.97;;;22.00;;
26530;SDS011;14201;43.188;24.160;2022-12-20T03:09:36;43.40;;;22.27;;
26530;SDS011;14201;43.188;24.160;2022-12-20T03:12:06;39.47;;;21.40;;
26530;SDS011;14201;43.188;24.160;2022-12-20T03:14:32;40.85;;;21.92;;
26530;SDS011;14201;43.188;24.160;2022-12-20T03:16:58;41.70;;;23.00;;
26530;SDS011;14201;43.188;24.160;2022-12-20T03:19:23;47.35;;;24.00;;
26530;SDS011;14201;43.188;24.160;2022-12-20T03:21:49;44.50;;;21.83;;
26530;SDS011;14201;43.188;24.160;2022-12-20T03:24:15;41.88;;;21.88;;
26530;SDS011;14201;43.188;24.160;2022-12-20T03:26:41;41.85;;;21.98;;
26530;SDS011;14201;43.188;24.160;2022-12-20T03:29:07;45.80;;;24.33;;
26530;SDS011;14201;43.188;24.160;2022-12-20T03:31:33;48.83;;;24.90;;
26530;SDS011;14201;43.188;24.160;2022-12-20T03:33:59;53.10;;;25.90;;
26530;SDS011;14201;43.188;24.160;2022-12-20T03:36:25;46.95;;;24.52;;
26530;SDS011;14201;43.188;24.160;2022-12-20T03:38:51;47.25;;;24.70;;
26530;SDS011;14201;43.188;24.160;2022-12-20T03:41:17;45.53;;;25.27;;
26530;SDS011;14201;43.188;24.160;2022-12-20T03:43:45;48.05;;;24.58;;
26530;SDS011;14201;43.188;24.160;2022-12-20T03:46:10;43.03;;;23.30;;
26530;SDS011;14201;43.188;24.160;2022-12-20T03:48:36;46.92;;;23.98;;
26530;SDS011;14201;43.188;24.160;2022-12-20T03:51:02;48.50;;;24.52;;
26530;SDS011;14201;43.188;24.160;2022-12-20T03:53:28;47.15;;;25.77;;
26530;SDS011;14201;43.188;24.160;2022-12-20T03:55:53;47.38;;;23.33;;
26530;SDS011;14201;43.188;24.160;2022-12-20T03:58:19;43.72;;;23.35;;
26530;SDS011;14201;43.188;24.160;2022-12-20T04:00:44;43.05;;;22.13;;
26530;SDS011;14201;43.188;24.160;2022-12-20T04:03:10;40.63;;;21.23;;
26530;SDS011;14201;43.188;24.160;2022-12-20T04:05:36;42.25;;;22.05;;
26530;SDS011;14201;43.188;24.160;2022-12-20T04:08:01;45.58;;;23.45;;
26530;SDS011;14201;43.188;24.160;2022-12-20T04:10:27;41.40;;;21.50;;
26530;SDS011;14201;43.188;24.160;2022-12-20T04:12:52;43.55;;;22.17;;
26530;SDS011;14201;43.188;24.160;2022-12-20T04:15:18;42.78;;;21.25;;
26530;SDS011;14201;43.188;24.160;2022-12-20T04:17:43;40.47;;;21.08;;
26530;SDS011;14201;43.188;24.160;2022-12-20T04:20:12;40.60;;;21.08;;
26530;SDS011;14201;43.188;24.160;2022-12-20T04:22:49;40.17;;;20.33;;
26530;SDS011;14201;43.188;24.160;2022-12-20T04:25:16;38.33;;;20.77;;
26530;SDS011;14201;43.188;24.160;2022-12-20T04:27:43;44.67;;;23.73;;
26530;SDS011;14201;43.188;24.160;2022-12-20T04:30:10;44.53;;;23.85;;
26530;SDS011;14201;43.188;24.160;2022-12-20T04:32:36;43.53;;;23.55;;
26530;SDS011;14201;43.188;24.160;2022-12-20T04:35:02;42.17;;;22.58;;
26530;SDS011;14201;43.188;24.160;2022-12-20T04:37:29;40.22;;;21.55;;
26530;SDS011;14201;43.188;24.160;2022-12-20T04:39:55;39.42;;;21.77;;
26530;SDS011;14201;43.188;24.160;2022-12-20T04:42:21;49.60;;;23.08;;
26530;SDS011;14201;43.188;24.160;2022-12-20T04:44:46;43.35;;;22.02;;
26530;SDS011;14201;43.188;24.160;2022-12-20T04:47:12;41.20;;;21.95;;
26530;SDS011;14201;43.188;24.160;2022-12-20T04:49:38;43.08;;;23.55;;
26530;SDS011;14201;43.188;24.160;2022-12-20T04:52:04;46.13;;;24.10;;
26530;SDS011;14201;43.188;24.160;2022-12-20T04:54:50;43.80;;;23.30;;
26530;SDS011;14201;43.188;24.160;2022-12-20T04:57:15;46.45;;;23.83;;
26530;SDS011;14201;43.188;24.160;2022-12-20T04:59:41;46.70;;;23.50;;
26530;SDS011;14201;43.188;24.160;2022-12-20T05:02:06;44.10;;;24.00;;
26530;SDS011;14201;43.188;24.160;2022-12-20T05:04:32;44.53;;;23.23;;
26530;SDS011;14201;43.188;24.160;2022-12-20T05:06:57;43.20;;;23.27;;
26530;SDS011;14201;43.188;24.160;2022-12-20T05:09:23;42.70;;;22.50;;
26530;SDS011;14201;43.188;24.160;2022-12-20T05:11:49;45.58;;;22.42;;
26530;SDS011;14201;43.188;24.160;2022-12-20T05:14:14;41.10;;;21.10;;
26530;SDS011;14201;43.188;24.160;2022-12-20T05:16:40;43.00;;;22.45;;
26530;SDS011;14201;43.188;24.160;2022-12-20T05:19:05;43.33;;;22.25;;
26530;SDS011;14201;43.188;24.160;2022-12-20T05:21:31;43.65;;;23.77;;
26530;SDS011;14201;43.188;24.160;2022-12-20T05:24:15;46.03;;;23.92;;
26530;SDS011;14201;43.188;24.160;2022-12-20T05:26:59;42.08;;;22.92;;
26530;SDS011;14201;43.188;24.160;2022-12-20T05:29:25;46.20;;;22.05;;
26530;SDS011;14201;43.188;24.160;2022-12-20T05:31:50;44.03;;;24.05;;
26530;SDS011;14201;43.188;24.160;2022-12-20T05:34:16;47.67;;;25.27;;
26530;SDS011;14201;43.188;24.160;2022-12-20T05:36:42;43.83;;;23.17;;
26530;SDS011;14201;43.188;24.160;2022-12-20T05:39:07;43.67;;;22.73;;
26530;SDS011;14201;43.188;24.160;2022-12-20T05:41:33;42.75;;;23.13;;
26530;SDS011;14201;43.188;24.160;2022-12-20T05:43:58;44.60;;;23.45;;
26530;SDS011;14201;43.188;24.160;2022-12-20T05:46:24;47.40;;;24.60;;
26530;SDS011;14201;43.188;24.160;2022-12-20T05:48:50;50.03;;;25.27;;
26530;SDS011;14201;43.188;24.160;2022-12-20T05:51:16;47.25;;;24.70;;
26530;SDS011;14201;43.188;24.160;2022-12-20T05:53:41;49.17;;;25.10;;
26530;SDS011;14201;43.188;24.160;2022-12-20T05:56:07;46.90;;;24.33;;
26530;SDS011;14201;43.188;24.160;2022-12-20T05:58:32;45.83;;;24.50;;
26530;SDS011;14201;43.188;24.160;2022-12-20T06:01:02;44.92;;;24.02;;
26530;SDS011;14201;43.188;24.160;2022-12-20T06:03:30;50.08;;;24.75;;
26530;SDS011;14201;43.188;24.160;2022-12-20T06:05:56;49.00;;;24.73;;
26530;SDS011;14201;43.188;24.160;2022-12-20T06:08:22;46.55;;;24.77;;
26530;SDS011;14201;43.188;24.160;2022-12-20T06:10:48;43.45;;;23.60;;
26530;SDS011;14201;43.188;24.160;2022-12-20T06:13:15;42.28;;;23.33;;
26530;SDS011;14201;43.188;24.160;2022-12-20T06:15:41;49.25;;;24.55;;
26530;SDS011;14201;43.188;24.160;2022-12-20T06:18:06;47.30;;;23.90;;
26530;SDS011;14201;43.188;24.160;2022-12-20T06:20:35;47.45;;;24.75;;
26530;SDS011;14201;43.188;24.160;2022-12-20T06:23:01;44.78;;;24.10;;
26530;SDS011;14201;43.188;24.160;2022-12-20T06:25:27;47.42;;;24.70;;
26530;SDS011;14201;43.188;24.160;2022-12-20T06:27:53;40.90;;;23.45;;
26530;SDS011;14201;43.188;24.160;2022-12-20T06:30:19;42.80;;;22.50;;
26530;SDS011;14201;43.188;24.160;2022-12-20T06:32:45;38.13;;;22.55;;
26530;SDS011;14201;43.188;24.160;2022-12-20T06:35:10;49.13;;;23.48;;
26530;SDS011;14201;43.188;24.160;2022-12-20T06:37:36;45.20;;;24.10;;
26530;SDS011;14201;43.188;24.160;2022-12-20T06:40:04;41.63;;;23.33;;
26530;SDS011;14201;43.188;24.160;2022-12-20T06:42:31;42.90;;;23.58;;
26530;SDS011;14201;43.188;24.160;2022-12-20T06:44:57;45.47;;;23.83;;
26530;SDS011;14201;43.188;24.160;2022-12-20T06:47:22;39.47;;;21.95;;
26530;SDS011;14201;43.188;24.160;2022-12-20T06:49:48;41.22;;;21.35;;
26530;SDS011;14201;43.188;24.160;2022-12-20T06:52:13;42.88;;;22.70;;
26530;SDS011;14201;43.188;24.160;2022-12-20T06:54:39;42.83;;;21.38;;
26530;SDS011;14201;43.188;24.160;2022-12-20T06:57:04;45.05;;;22.27;;
26530;SDS011;14201;43.188;24.160;2022-12-20T06:59:31;43.35;;;23.33;;
26530;SDS011;14201;43.188;24.160;2022-12-20T07:01:56;46.20;;;23.05;;
26530;SDS011;14201;43.188;24.160;2022-12-20T07:04:22;43.03;;;23.05;;
26530;SDS011;14201;43.188;24.160;2022-12-20T07:06:48;44.60;;;21.80;;
26530;SDS011;14201;43.188;24.160;2022-12-20T07:09:13;43.80;;;22.90;;
26530;SDS011;14201;43.188;24.160;2022-12-20T07:11:39;44.33;;;21.70;;
26530;SDS011;14201;43.188;24.160;2022-12-20T07:14:07;47.75;;;24.70;;
26530;SDS011;14201;43.188;24.160;2022-12-20T07:16:33;45.58;;;23.85;;
26530;SDS011;14201;43.188;24.160;2022-12-20T07:18:59;46.05;;;23.63;;
26530;SDS011;14201;43.188;24.160;2022-12-20T07:21:26;52.22;;;23.95;;
26530;SDS011;14201;43.188;24.160;2022-12-20T07:23:51;51.92;;;23.77;;
26530;SDS011;14201;43.188;24.160;2022-12-20T07:26:19;47.97;;;24.63;;
26530;SDS011;14201;43.188;24.160;2022-12-20T07:28:45;52.00;;;25.20;;
26530;SDS011;14201;43.188;24.160;2022-12-20T07:31:10;46.80;;;24.35;;
26530;SDS011;14201;43.188;24.160;2022-12-20T07:33:36;52.00;;;23.42;;
26530;SDS011;14201;43.188;24.160;2022-12-20T07:36:06;43.05;;;23.13;;
26530;SDS011;14201;43.188;24.160;2022-12-20T07:38:34;46.28;;;23.13;;
26530;SDS011;14201;43.188;24.160;2022-12-20T07:41:05;51.15;;;25.10;;
26530;SDS011;14201;43.188;24.160;2022-12-20T07:43:32;48.10;;;23.63;;
26530;SDS011;14201;43.188;24.160;2022-12-20T07:45:58;46.20;;;22.60;;
26530;SDS011;14201;43.188;24.160;2022-12-20T07:48:24;47.85;;;23.13;;
26530;SDS011;14201;43.188;24.160;2022-12-20T07:50:53;47.88;;;23.88;;
26530;SDS011;14201;43.188;24.160;2022-12-20T07:53:23;48.03;;;24.27;;
26530;SDS011;14201;43.188;24.160;2022-12-20T07:55:50;45.83;;;23.42;;
26530;SDS011;14201;43.188;24.160;2022-12-20T07:58:18;44.65;;;23.90;;
26530;SDS011;14201;43.188;24.160;2022-12-20T08:00:44;44.97;;;24.10;;
26530;SDS011;14201;43.188;24.160;2022-12-20T08:03:12;51.08;;;26.08;;
26530;SDS011;14201;43.188;24.160;2022-12-20T08:05:44;49.13;;;24.90;;
26530;SDS011;14201;43.188;24.160;2022-12-20T08:08:12;53.67;;;26.35;;
26530;SDS011;14201;43.188;24.160;2022-12-20T08:10:39;47.45;;;24.42;;
26530;SDS011;14201;43.188;24.160;2022-12-20T08:13:05;42.53;;;23.50;;
26530;SDS011;14201;43.188;24.160;2022-12-20T08:15:32;51.35;;;25.15;;
26530;SDS011;14201;43.188;24.160;2022-12-20T08:17:59;49.78;;;24.83;;
26530;SDS011;14201;43.188;24.160;2022-12-20T08:20:24;45.95;;;24.70;;
26530;SDS011;14201;43.188;24.160;2022-12-20T08:22:50;43.80;;;22.80;;
26530;SDS011;14201;43.188;24.160;2022-12-20T08:25:15;43.90;;;24.02;;
26530;SDS011;14201;43.188;24.160;2022-12-20T08:27:41;42.70;;;22.30;;
26530;SDS011;14201;43.188;24.160;2022-12-20T08:30:07;42.70;;;22.33;;
26530;SDS011;14201;43.188;24.160;2022-12-20T08:32:34;44.22;;;23.52;;
26530;SDS011;14201;43.188;24.160;2022-12-20T08:35:00;44.50;;;24.13;;
26530;SDS011;14201;43.188;24.160;2022-12-20T08:37:26;45.45;;;25.17;;
26530;SDS011;14201;43.188;24.160;2022-12-20T08:39:51;47.53;;;24.17;;
26530;SDS011;14201;43.188;24.160;2022-12-20T08:42:17;44.50;;;23.95;;
26530;SDS011;14201;43.188;24.160;2022-12-20T08:44:42;47.17;;;24.65;;
26530;SDS011;14201;43.188;24.160;2022-12-20T08:47:08;47.28;;;24.92;;
26530;SDS011;14201;43.188;24.160;2022-12-20T08:49:34;44.25;;;23.98;;
26530;SDS011;14201;43.188;24.160;2022-12-20T08:52:01;43.05;;;22.58;;
26530;SDS011;14201;43.188;24.160;2022-12-20T08:54:27;41.97;;;23.25;;
26530;SDS011;14201;43.188;24.160;2022-12-20T08:56:52;46.65;;;23.77;;
26530;SDS011;14201;43.188;24.160;2022-12-20T08:59:18;45.03;;;23.30;;
26530;SDS011;14201;43.188;24.160;2022-12-20T09:01:43;42.88;;;23.50;;
26530;SDS011;14201;43.188;24.160;2022-12-20T09:04:09;37.83;;;21.73;;
26530;SDS011;14201;43.188;24.160;2022-12-20T09:06:36;41.05;;;22.17;;
26530;SDS011;14201;43.188;24.160;2022-12-20T09:09:02;50.13;;;28.15;;
26530;SDS011;14201;43.188;24.160;2022-12-20T09:11:29;52.65;;;28.25;;
26530;SDS011;14201;43.188;24.160;2022-12-20T09:13:55;70.70;;;37.75;;
26530;SDS011;14201;43.188;24.160;2022-12-20T09:16:23;68.72;;;37.70;;
26530;SDS011;14201;43.188;24.160;2022-12-20T09:18:51;65.82;;;35.60;;
26530;SDS011;14201;43.188;24.160;2022-12-20T09:21:19;68.32;;;33.00;;
26530;SDS011;14201;43.188;24.160;2022-12-20T09:23:45;45.03;;;25.15;;
26530;SDS011;14201;43.188;24.160;2022-12-20T09:26:14;65.25;;;33.22;;
26530;SDS011;14201;43.188;24.160;2022-12-20T09:28:40;54.72;;;29.33;;
26530;SDS011;14201;43.188;24.160;2022-12-20T09:31:07;59.63;;;31.60;;
26530;SDS011;14201;43.188;24.160;2022-12-20T09:33:35;63.35;;;34.17;;
26530;SDS011;14201;43.188;24.160;2022-12-20T09:36:01;74.63;;;37.53;;
26530;SDS011;14201;43.188;24.160;2022-12-20T09:38:28;78.28;;;39.75;;
26530;SDS011;14201;43.188;24.160;2022-12-20T09:40:58;78.05;;;40.90;;
26530;SDS011;14201;43.188;24.160;2022-12-20T09:43:27;76.50;;;41.08;;
26530;SDS011;14201;43.188;24.160;2022-12-20T09:45:54;81.78;;;41.97;;
26530;SDS011;14201;43.188;24.160;2022-12-20T09:48:28;79.00;;;43.35;;
26530;SDS011;14201;43.188;24.160;2022-12-20T09:56:11;79.85;;;41.88;;
26530;SDS011;14201;43.188;24.160;2022-12-20T10:01:25;76.63;;;41.80;;
26530;SDS011;14201;43.188;24.160;2022-12-20T10:03:53;79.35;;;41.13;;
26530;SDS011;14201;43.188;24.160;2022-12-20T10:09:12;88.45;;;44.75;;
26530;SDS011;14201;43.188;24.160;2022-12-20T10:12:07;83.45;;;44.08;;
26530;SDS011;14201;43.188;24.160;2022-12-20T10:23:11;77.45;;;41.55;;
26530;SDS011;14201;43.188;24.160;2022-12-20T10:25:53;85.50;;;43.28;;
26530;SDS011;14201;43.188;24.160;2022-12-20T10:28:24;80.55;;;41.25;;
26530;SDS011;14201;43.188;24.160;2022-12-20T10:30:57;89.30;;;45.78;;
26530;SDS011;14201;43.188;24.160;2022-12-20T10:33:27;89.90;;;46.30;;
26530;SDS011;14201;43.188;24.160;2022-12-20T10:35:55;88.57;;;46.13;;
26530;SDS011;14201;43.188;24.160;2022-12-20T10:38:52;86.18;;;45.92;;
26530;SDS011;14201;43.188;24.160;2022-12-20T10:41:24;90.35;;;46.75;;
26530;SDS011;14201;43.188;24.160;2022-12-20T10:47:01;97.97;;;49.63;;
26530;SDS011;14201;43.188;24.160;2022-12-20T10:49:33;87.25;;;46.30;;
26530;SDS011;14201;43.188;24.160;2022-12-20T10:57:12;62.08;;;33.60;;
26530;SDS011;14201;43.188;24.160;2022-12-20T10:59:56;68.32;;;35.10;;
26530;SDS011;14201;43.188;24.160;2022-12-20T11:05:30;85.03;;;44.80;;
26530;SDS011;14201;43.188;24.160;2022-12-20T11:08:00;91.15;;;47.22;;
26530;SDS011;14201;43.188;24.160;2022-12-20T11:10:39;90.78;;;46.38;;
26530;SDS011;14201;43.188;24.160;2022-12-20T11:13:05;92.25;;;47.22;;
26530;SDS011;14201;43.188;24.160;2022-12-20T11:15:31;90.78;;;46.83;;
26530;SDS011;14201;43.188;24.160;2022-12-20T11:18:11;86.20;;;43.95;;
26530;SDS011;14201;43.188;24.160;2022-12-20T11:20:46;89.50;;;45.33;;
26530;SDS011;14201;43.188;24.160;2022-12-20T11:28:46;68.60;;;36.70;;
26530;SDS011;14201;43.188;24.160;2022-12-20T11:37:17;66.20;;;34.60;;
26530;SDS011;14201;43.188;24.160;2022-12-20T11:40:05;63.60;;;33.70;;
26530;SDS011;14201;43.188;24.160;2022-12-20T11:54:09;48.55;;;27.15;;
26530;SDS011;14201;43.188;24.160;2022-12-20T11:56:50;42.55;;;24.98;;
26530;SDS011;14201;43.188;24.160;2022-12-20T12:02:09;41.17;;;23.52;;
26530;SDS011;14201;43.188;24.160;2022-12-20T12:04:38;41.58;;;23.25;;
26530;SDS011;14201;43.188;24.160;2022-12-20T12:07:16;47.20;;;26.38;;
26530;SDS011;14201;43.188;24.160;2022-12-20T12:12:28;48.28;;;26.40;;
26530;SDS011;14201;43.188;24.160;2022-12-20T12:15:00;46.75;;;25.33;;
26530;SDS011;14201;43.188;24.160;2022-12-20T12:17:44;49.97;;;26.52;;
26530;SDS011;14201;43.188;24.160;2022-12-20T12:23:25;40.85;;;22.90;;
26530;SDS011;14201;43.188;24.160;2022-12-20T12:26:01;39.92;;;22.70;;
26530;SDS011;14201;43.188;24.160;2022-12-20T12:28:34;44.75;;;24.88;;
26530;SDS011;14201;43.188;24.160;2022-12-20T12:31:02;44.72;;;23.55;;
26530;SDS011;14201;43.188;24.160;2022-12-20T12:33:46;45.95;;;24.02;;
26530;SDS011;14201;43.188;24.160;2022-12-20T12:41:34;38.38;;;21.95;;
26530;SDS011;14201;43.188;24.160;2022-12-20T12:46:53;37.75;;;20.38;;
26530;SDS011;14201;43.188;24.160;2022-12-20T12:49:23;37.67;;;22.00;;
26530;SDS011;14201;43.188;24.160;2022-12-20T12:51:53;42.47;;;22.90;;
26530;SDS011;14201;43.188;24.160;2022-12-20T12:54:29;39.13;;;22.00;;
26530;SDS011;14201;43.188;24.160;2022-12-20T12:57:02;41.75;;;21.80;;
26530;SDS011;14201;43.188;24.160;2022-12-20T13:04:30;38.42;;;21.50;;
26530;SDS011;14201;43.188;24.160;2022-12-20T13:20:27;41.65;;;22.48;;
26530;SDS011;14201;43.188;24.160;2022-12-20T13:25:31;39.55;;;22.55;;
26530;SDS011;14201;43.188;24.160;2022-12-20T13:33:44;44.20;;;23.15;;
26530;SDS011;14201;43.188;24.160;2022-12-20T13:41:32;40.58;;;22.35;;
26530;SDS011;14201;43.188;24.160;2022-12-20T13:44:08;40.22;;;22.30;;
26530;SDS011;14201;43.188;24.160;2022-12-20T13:49:21;37.60;;;20.38;;
26530;SDS011;14201;43.188;24.160;2022-12-20T13:52:11;36.72;;;20.23;;
26530;SDS011;14201;43.188;24.160;2022-12-20T13:54:44;40.83;;;21.02;;
26530;SDS011;14201;43.188;24.160;2022-12-20T13:57:39;41.58;;;22.67;;
26530;SDS011;14201;43.188;24.160;2022-12-20T14:00:18;35.83;;;20.02;;
26530;SDS011;14201;43.188;24.160;2022-12-20T14:02:49;41.72;;;22.88;;
26530;SDS011;14201;43.188;24.160;2022-12-20T14:05:20;37.70;;;21.25;;
26530;SDS011;14201;43.188;24.160;2022-12-20T14:08:00;39.00;;;21.38;;
26530;SDS011;14201;43.188;24.160;2022-12-20T14:10:30;36.78;;;20.90;;
26530;SDS011;14201;43.188;24.160;2022-12-20T14:12:57;39.40;;;22.42;;
26530;SDS011;14201;43.188;24.160;2022-12-20T14:15:24;36.45;;;20.60;;
26530;SDS011;14201;43.188;24.160;2022-12-20T14:17:54;36.53;;;18.88;;
26530;SDS011;14201;43.188;24.160;2022-12-20T14:20:22;33.28;;;18.42;;
26530;SDS011;14201;43.188;24.160;2022-12-20T14:23:00;32.78;;;18.52;;
26530;SDS011;14201;43.188;24.160;2022-12-20T14:25:48;31.85;;;17.92;;
26530;SDS011;14201;43.188;24.160;2022-12-20T14:28:34;34.13;;;19.65;;
26530;SDS011;14201;43.188;24.160;2022-12-20T14:31:03;36.30;;;20.05;;
26530;SDS011;14201;43.188;24.160;2022-12-20T14:33:33;35.58;;;19.17;;
26530;SDS011;14201;43.188;24.160;2022-12-20T14:38:35;35.63;;;19.48;;
26530;SDS011;14201;43.188;24.160;2022-12-20T14:41:01;31.83;;;17.73;;
26530;SDS011;14201;43.188;24.160;2022-12-20T14:43:28;31.83;;;17.08;;
26530;SDS011;14201;43.188;24.160;2022-12-20T14:51:47;36.15;;;19.23;;
26530;SDS011;14201;43.188;24.160;2022-12-20T14:56:47;30.92;;;18.95;;
26530;SDS011;14201;43.188;24.160;2022-12-20T14:59:16;39.58;;;21.25;;
26530;SDS011;14201;43.188;24.160;2022-12-20T15:01:48;38.00;;;20.85;;
26530;SDS011;14201;43.188;24.160;2022-12-20T15:04:33;38.10;;;21.27;;
26530;SDS011;14201;43.188;24.160;2022-12-20T15:07:00;34.10;;;19.30;;
26530;SDS011;14201;43.188;24.160;2022-12-20T15:09:26;33.28;;;18.55;;
26530;SDS011;14201;43.188;24.160;2022-12-20T15:11:53;34.67;;;19.60;;
26530;SDS011;14201;43.188;24.160;2022-12-20T15:14:21;35.40;;;19.58;;
26530;SDS011;14201;43.188;24.160;2022-12-20T15:16:58;36.53;;;19.75;;
26530;SDS011;14201;43.188;24.160;2022-12-20T15:19:24;33.78;;;20.27;;
26530;SDS011;14201;43.188;24.160;2022-12-20T15:21:49;35.17;;;19.58;;
26530;SDS011;14201;43.188;24.160;2022-12-20T15:24:20;34.15;;;19.98;;
26530;SDS011;14201;43.188;24.160;2022-12-20T15:26:49;32.33;;;18.83;;
26530;SDS011;14201;43.188;24.160;2022-12-20T15:29:16;34.83;;;19.65;;
26530;SDS011;14201;43.188;24.160;2022-12-20T15:31:43;38.15;;;21.20;;
26530;SDS011;14201;43.188;24.160;2022-12-20T15:36:41;31.20;;;18.80;;
26530;SDS011;14201;43.188;24.160;2022-12-20T15:39:08;30.95;;;18.77;;
26530;SDS011;14201;43.188;24.160;2022-12-20T15:41:35;30.13;;;17.77;;
26530;SDS011;14201;43.188;24.160;2022-12-20T15:44:05;32.05;;;18.38;;
26530;SDS011;14201;43.188;24.160;2022-12-20T15:48:57;34.03;;;18.65;;
26530;SDS011;14201;43.188;24.160;2022-12-20T15:53:56;32.25;;;19.35;;
26530;SDS011;14201;43.188;24.160;2022-12-20T15:56:23;34.75;;;19.70;;
26530;SDS011;14201;43.188;24.160;2022-12-20T15:58:50;41.50;;;24.40;;
26530;SDS011;14201;43.188;24.160;2022-12-20T16:01:24;47.83;;;27.13;;
26530;SDS011;14201;43.188;24.160;2022-12-20T16:03:52;49.08;;;26.92;;
26530;SDS011;14201;43.188;24.160;2022-12-20T16:06:17;46.70;;;27.17;;
26530;SDS011;14201;43.188;24.160;2022-12-20T16:08:43;48.30;;;27.35;;
26530;SDS011;14201;43.188;24.160;2022-12-20T16:11:42;51.28;;;30.08;;
26530;SDS011;14201;43.188;24.160;2022-12-20T16:14:01;50.90;;;30.48;;
26530;SDS011;14201;43.188;24.160;2022-12-20T16:16:31;56.83;;;32.42;;
26530;SDS011;14201;43.188;24.160;2022-12-20T16:18:58;54.15;;;30.80;;
26530;SDS011;14201;43.188;24.160;2022-12-20T16:21:24;50.42;;;29.42;;
26530;SDS011;14201;43.188;24.160;2022-12-20T16:24:08;52.72;;;29.80;;
26530;SDS011;14201;43.188;24.160;2022-12-20T16:26:36;48.05;;;29.33;;
26530;SDS011;14201;43.188;24.160;2022-12-20T16:29:02;46.92;;;27.60;;
26530;SDS011;14201;43.188;24.160;2022-12-20T16:33:58;49.63;;;28.15;;
26530;SDS011;14201;43.188;24.160;2022-12-20T16:36:27;47.47;;;28.30;;
26530;SDS011;14201;43.188;24.160;2022-12-20T16:38:53;43.42;;;26.48;;
26530;SDS011;14201;43.188;24.160;2022-12-20T16:41:20;40.20;;;24.08;;
26530;SDS011;14201;43.188;24.160;2022-12-20T16:43:48;40.38;;;23.05;;
26530;SDS011;14201;43.188;24.160;2022-12-20T16:46:15;41.80;;;23.65;;